Terminal Aerodrome Forecast
Issued by NWS Austin/San Antonio, TX

Current Version | Previous Version | Text Only | Print | Product List | Glossary On
Versions: 1 2 3 4 5 6 7 8 9 10 11 12 13 14 15 16 17 18 19 20 21 22 23 24 25
000
FTUS44 KEWX 292342 AAA
TAFSAT
TAF AMD
KSAT 292342Z 3000/3106 17012KT P6SM FEW250
     FM300500 16007KT P6SM OVC015
     FM300700 16006KT 5SM BR OVC007
     FM301600 16008KT P6SM SCT015 SCT035 PROB30 3023/3103 P6SM TSRA
      SCT035CB
     FM310300 05007KT P6SM VCSH BKN025=

USA.gov is the U.S. government's official web portal to all federal, state and local government web resources and services.